WetterOnline ( https://www.wetteronline.at )

Wetter aktuell Den Helder

Aktuelles Wetter: Den Helder (2m)

6-stündlich | Neueste Meldungen
Ortszeit Temperatur Wetter
Di, 18.06. 8:00 17.8° C bedeckt
Di, 18.06. 2:00 14.7° C wolkig
Mo, 17.06. 20:00 18.4° C leicht bewölkt
Mo, 17.06. 14:00 21.4° C bewölkt
Mo, 17.06. 8:00 16.7° C bewölkt
Mo, 17.06. 2:00 14.2° C wolkenlos
So, 16.06. 20:00 17.4° C wolkig
So, 16.06. 14:00 16.9° C wolkig
Ortszeit Temperatur Wetter
Di, 18.06. 8:25 18° C bewölkt
Di, 18.06. 8:00 17.8° C bedeckt
Di, 18.06. 7:55 18° C bewölkt
Di, 18.06. 7:25 16° C wolkig
Di, 18.06. 7:00 14.5° C wolkig
Di, 18.06. 6:55 14° C leicht bewölkt
Di, 18.06. 6:25 13° C wolkig
Di, 18.06. 6:00 13.0° C bewölkt
Di, 18.06. 5:25 13° C wolkig
Di, 18.06. 5:00 13.1° C wolkig
Ortszeit Relative Feuchte Sichtweite
Di, 18.06. 8:00 74% 28 km
Di, 18.06. 2:00 86% 28 km
Mo, 17.06. 20:00 70% 30 km
Mo, 17.06. 14:00 63% 25 km
Mo, 17.06. 8:00 80% 35 km
Mo, 17.06. 2:00 89% 26 km
So, 16.06. 20:00 72% 40 km
So, 16.06. 14:00 74% 35 km
Ortszeit Relative Feuchte Sichtweite
Di, 18.06. 8:25 77% >10 km
Di, 18.06. 8:00 74% 28 km
Di, 18.06. 7:55 77% >10 km
Di, 18.06. 7:25 88% >10 km
Di, 18.06. 7:00 94% 10 km
Di, 18.06. 6:55 94% >10 km
Di, 18.06. 6:25 94% >10 km
Di, 18.06. 6:00 94% 12 km
Di, 18.06. 5:25 100% >10 km
Di, 18.06. 5:00 97% 12 km
Ortszeit Niederschlagsmenge Niederschlagsart
Di, 18.06. 8:00 0.0 l/m2 in 12 Std. -
Di, 18.06. 2:00 0.0 l/m2 in 6 Std. -
Mo, 17.06. 20:00 0.0 l/m2 in 12 Std. -
Mo, 17.06. 14:00 0.0 l/m2 in 6 Std. -
Mo, 17.06. 8:00 0.0 l/m2 in 12 Std. -
Mo, 17.06. 2:00 0.0 l/m2 in 6 Std. -
So, 16.06. 20:00 0.0 l/m2 in 12 Std. -
So, 16.06. 14:00 0.0 l/m2 in 6 Std. -
Ortszeit Niederschlagsmenge Niederschlagsart
Di, 18.06. 8:25 keine Meldung -
Di, 18.06. 8:00 0.0 l/m2 in 1 Std. -
Di, 18.06. 7:55 keine Meldung -
Di, 18.06. 7:25 keine Meldung -
Di, 18.06. 7:00 0.0 l/m2 in 1 Std. -
Di, 18.06. 6:55 keine Meldung -
Di, 18.06. 6:25 keine Meldung -
Di, 18.06. 6:00 0.0 l/m2 in 1 Std. -
Di, 18.06. 5:25 keine Meldung -
Di, 18.06. 5:00 keine Meldung -
Ortszeit Stärke Spitze Richtung
km/h Bft. km/h Grad Sektor
Di, 18.06. 8:00 11 2 14 230° SW
Di, 18.06. 2:00 4 1 11 uml. uml.
Mo, 17.06. 20:00 4 1 32 250° W
Mo, 17.06. 14:00 25 4 32 230° SW
Mo, 17.06. 8:00 14 3 18 190° S
Mo, 17.06. 2:00 14 3 40 190° S
So, 16.06. 20:00 25 4 47 220° SW
So, 16.06. 14:00 29 5 43 230° SW
Ortszeit Stärke Spitze Richtung
km/h Bft. km/h Grad Sektor
Di, 18.06. 8:25 11 2 - 230° SW
Di, 18.06. 8:00 11 2 14 230° SW
Di, 18.06. 7:55 6 1 - 220° SW
Di, 18.06. 7:25 7 2 - 210° SW
Di, 18.06. 7:00 4 1 7 210° SW
Di, 18.06. 6:55 6 1 - 240° SW
Di, 18.06. 6:25 4 1 - 210° SW
Di, 18.06. 6:00 4 1 7 200° S
Di, 18.06. 5:25 4 1 - 190° S
Di, 18.06. 5:00 4 1 7 190° S
Ortszeit Untergrenze Bedeckung Gattung
total tief tief mittel hoch
Di, 18.06. 8:00 5400 m 8/8 8/8 - - -
Di, 18.06. 2:00 1500 m 8/8 1/8 - - -
Mo, 17.06. 20:00 - 2/8 2/8 - - -
Mo, 17.06. 14:00 - 7/8 7/8 - - -
Mo, 17.06. 8:00 1290 m 7/8 7/8 - - -
Mo, 17.06. 2:00 - 0/8 0/8 - - -
So, 16.06. 20:00 8700 m 8/8 0/8 - - -
So, 16.06. 14:00 510 m 7/8 1/8 - - -
Ortszeit Bedeckungsgrad in Achtel und Wolkenuntergrenze
Di, 18.06. 8:25 8(5400m)
Di, 18.06. 8:00 8(5400m)
Di, 18.06. 7:55 8(5400m)
Di, 18.06. 7:25 5-7(6000m) 8(8400m)
Di, 18.06. 7:00 8(9000m)
Di, 18.06. 6:55 5-7(9000m)
Di, 18.06. 6:25 8(9000m)
Di, 18.06. 6:00 5(6900m) 8(9000m)
Di, 18.06. 5:25 8(9000m)
Di, 18.06. 5:00 8(9000m)
Ortszeit Luftdruck NN (hPa) Tendenz (hPa in 3 Std.)
Di, 18.06. 8:00 1016 - 0,3
Di, 18.06. 2:00 1017 - 0,6
Mo, 17.06. 20:00 1018 - 1,0
Mo, 17.06. 14:00 1019 - 0,9
Mo, 17.06. 8:00 1020 + 0,4
Mo, 17.06. 2:00 1020 + 0,3
So, 16.06. 20:00 1019 - 0,2
So, 16.06. 14:00 1019 + 1,1
Ortszeit Luftdruck NN (hPa) Tendenz (hPa in 3 Std.)
Di, 18.06. 8:25 1015 keine Meldung
Di, 18.06. 8:00 1016 - 0,3
Di, 18.06. 7:55 1015 keine Meldung
Di, 18.06. 7:25 1015 keine Meldung
Di, 18.06. 7:00 1016 - 0,3
Di, 18.06. 6:55 1015 keine Meldung
Di, 18.06. 6:25 1015 keine Meldung
Di, 18.06. 6:00 1016 - 0,6
Di, 18.06. 5:25 1015 keine Meldung
Di, 18.06. 5:00 1016 - 0,9
Ortszeit Schneehöhe (cm)
Di, 18.06. 8:00 -
Di, 18.06. 2:00 -
Mo, 17.06. 20:00 -
Mo, 17.06. 14:00 -
Mo, 17.06. 8:00 -
Mo, 17.06. 2:00 -
So, 16.06. 20:00 -
So, 16.06. 14:00 -
Ortszeit Schneehöhe (cm)
Di, 18.06. 8:25 -
Di, 18.06. 8:00 -
Di, 18.06. 7:55 -
Di, 18.06. 7:25 -
Di, 18.06. 7:00 -
Di, 18.06. 6:55 -
Di, 18.06. 6:25 -
Di, 18.06. 6:00 -
Di, 18.06. 5:25 -
Di, 18.06. 5:00 -
Link zu dieser Seite / Seite empfehlen

Das Wetter in ...